createdAt,value
2023-09-23T00:05:01.027Z,43.61
2023-09-23T00:10:07.107Z,43.57
2023-09-23T00:15:12.159Z,43.70
2023-09-23T00:20:17.319Z,43.29
2023-09-23T00:25:20.376Z,44.23
2023-09-23T00:30:28.038Z,43.86
2023-09-23T00:35:30.798Z,43.91
2023-09-23T00:40:34.848Z,44.14
2023-09-23T00:45:38.274Z,44.63
2023-09-23T00:50:40.868Z,45.07
2023-09-23T00:55:54.208Z,44.99
2023-09-23T01:01:00.140Z,46.24
2023-09-23T01:06:05.504Z,46.83
2023-09-23T01:11:09.622Z,46.84
2023-09-23T01:16:16.253Z,45.88
2023-09-23T01:21:20.021Z,45.63
2023-09-23T01:26:22.677Z,45.81
2023-09-23T01:31:28.325Z,45.83
2023-09-23T01:36:30.707Z,44.93
2023-09-23T01:41:34.416Z,44.10
2023-09-23T01:46:37.756Z,43.95
2023-09-23T01:51:40.554Z,43.71
2023-09-23T01:56:44.653Z,43.72
2023-09-23T02:01:47.603Z,43.56
2023-09-23T02:06:50.945Z,43.43
2023-09-23T02:11:55.837Z,43.54
2023-09-23T02:16:59.859Z,43.63
2023-09-23T02:22:07.578Z,43.13
2023-09-23T02:27:10.282Z,43.65
2023-09-23T02:32:14.874Z,43.65
2023-09-23T02:37:19.008Z,43.07
2023-09-23T02:42:21.611Z,43.33
2023-09-23T02:47:24.156Z,43.05
2023-09-23T02:52:27.599Z,43.22
2023-09-23T02:57:30.616Z,43.05
2023-09-23T03:02:33.755Z,42.90
2023-09-23T03:07:36.903Z,43.36
2023-09-23T03:12:45.814Z,43.33
2023-09-23T03:17:53.182Z,43.18
2023-09-23T03:22:55.567Z,43.84
2023-09-23T03:27:59.407Z,44.04
2023-09-23T03:33:03.963Z,43.83
2023-09-23T03:38:07.170Z,44.38
2023-09-23T03:43:10.007Z,44.56
2023-09-23T03:48:12.662Z,45.64
2023-09-23T03:53:15.044Z,45.29
2023-09-23T03:58:21.608Z,45.55
2023-09-23T04:03:24.872Z,45.66
2023-09-23T04:08:28.554Z,44.96
2023-09-23T04:13:32.553Z,45.14
2023-09-23T04:18:35.121Z,45.19
2023-09-23T04:23:37.503Z,45.24
2023-09-23T04:28:39.878Z,42.40
2023-09-23T04:33:43.149Z,39.05
2023-09-23T04:38:45.854Z,36.89
2023-09-23T04:43:49.342Z,34.88
2023-09-23T04:48:51.714Z,34.00
2023-09-23T04:53:54.651Z,32.47
2023-09-23T04:59:00.447Z,31.71
2023-09-23T05:04:04.774Z,30.46
2023-09-23T05:09:09.959Z,29.00
2023-09-23T05:14:15.585Z,27.58
2023-09-23T05:19:21.675Z,27.47
2023-09-23T05:24:28.304Z,26.34
2023-09-23T05:29:31.126Z,26.32
2023-09-23T05:34:34.119Z,25.73
2023-09-23T05:39:36.474Z,25.53
2023-09-23T05:44:39.789Z,24.74
2023-09-23T05:49:45.309Z,24.33
2023-09-23T05:54:51.914Z,23.74
2023-09-23T05:59:55.454Z,23.76
2023-09-23T06:05:02.569Z,23.78
2023-09-23T06:10:07.611Z,23.20
2023-09-23T06:15:12.002Z,23.34
2023-09-23T06:20:14.723Z,23.94
2023-09-23T06:25:17.503Z,22.49
2023-09-23T06:30:20.716Z,21.41
2023-09-23T06:35:23.113Z,21.24
2023-09-23T06:40:25.991Z,21.45
2023-09-23T06:45:28.945Z,21.29
2023-09-23T06:50:31.447Z,21.54
2023-09-23T06:55:34.057Z,21.45
2023-09-23T07:00:37.903Z,21.63
2023-09-23T07:05:42.509Z,22.02
2023-09-23T07:10:45.440Z,22.65
2023-09-23T07:15:48.539Z,22.61
2023-09-23T07:20:57.885Z,22.80
2023-09-23T07:26:02.363Z,23.40
2023-09-23T07:31:10.380Z,24.33
2023-09-23T07:36:13.521Z,24.40
2023-09-23T07:41:16.762Z,24.43
2023-09-23T07:46:19.585Z,24.52
2023-09-23T07:51:22.178Z,24.46
2023-09-23T07:56:24.569Z,25.04
2023-09-23T08:01:26.990Z,25.31
2023-09-23T08:06:31.840Z,25.62
2023-09-23T08:11:34.741Z,26.45
2023-09-23T08:16:38.039Z,25.95
2023-09-23T08:21:40.485Z,26.13
2023-09-23T08:26:43.504Z,25.48
2023-09-23T08:31:46.509Z,25.38
2023-09-23T08:36:54.518Z,25.70
2023-09-23T08:42:01.483Z,25.95
2023-09-23T08:47:04.482Z,25.77
2023-09-23T08:52:08.271Z,25.53
2023-09-23T08:57:12.189Z,24.95
2023-09-23T09:02:24.775Z,24.73
2023-09-23T09:07:35.200Z,23.59
2023-09-23T09:12:37.986Z,23.88
2023-09-23T09:17:42.434Z,24.56
2023-09-23T09:22:47.069Z,24.54
2023-09-23T09:27:50.385Z,24.53
2023-09-23T09:32:58.538Z,23.94
2023-09-23T09:38:17.578Z,24.36
2023-09-23T09:43:22.969Z,24.28
2023-09-23T09:48:28.857Z,24.57
2023-09-23T09:53:31.413Z,24.31
2023-09-23T09:58:41.143Z,25.04
2023-09-23T10:03:44.771Z,23.65
2023-09-23T10:08:50.230Z,24.02
2023-09-23T10:13:53.399Z,24.00
2023-09-23T10:18:58.753Z,23.35
2023-09-23T10:24:04.351Z,23.55
2023-09-23T10:29:08.182Z,23.29
2023-09-23T10:34:12.639Z,22.55
2023-09-23T10:39:18.916Z,22.45
2023-09-23T10:44:25.442Z,22.29
2023-09-23T10:49:29.374Z,21.91
2023-09-23T10:54:33.876Z,21.28
2023-09-23T10:59:36.999Z,20.37
2023-09-23T11:04:40.994Z,21.33
2023-09-23T11:09:46.585Z,20.96
2023-09-23T11:14:50.716Z,21.33
2023-09-23T11:19:57.225Z,21.68
2023-09-23T11:25:00.262Z,22.62
2023-09-23T11:30:06.277Z,21.51
2023-09-23T11:35:09.924Z,20.50
2023-09-23T11:40:13.950Z,21.32
2023-09-23T11:45:16.990Z,21.91
2023-09-23T11:50:19.379Z,21.12
2023-09-23T11:55:24.661Z,20.58
2023-09-23T12:00:27.009Z,21.13
2023-09-23T12:05:32.211Z,21.92
2023-09-23T12:10:35.343Z,21.42
2023-09-23T12:15:37.708Z,21.84
2023-09-23T12:20:40.149Z,22.32
2023-09-23T12:25:45.066Z,21.28
2023-09-23T12:30:48.096Z,22.43
2023-09-23T12:35:50.454Z,22.26
2023-09-23T12:40:52.871Z,22.23
2023-09-23T12:45:56.036Z,22.17
2023-09-23T12:50:58.997Z,22.38
2023-09-23T12:56:01.417Z,23.15
2023-09-23T13:01:04.244Z,24.08
2023-09-23T13:06:08.167Z,24.36
2023-09-23T13:11:17.118Z,24.36
2023-09-23T13:16:20.135Z,24.78
2023-09-23T13:21:24.903Z,24.51
2023-09-23T13:26:27.733Z,24.21
2023-09-23T13:31:30.169Z,24.42
2023-09-23T13:36:32.514Z,24.85
2023-09-23T13:41:35.552Z,25.00
2023-09-23T13:46:38.409Z,25.36
2023-09-23T13:51:41.545Z,25.30
2023-09-23T13:56:45.140Z,25.72
2023-09-23T14:01:49.206Z,25.49
2023-09-23T14:06:52.138Z,25.91
2023-09-23T14:11:54.560Z,25.67
2023-09-23T14:16:57.927Z,25.34
2023-09-23T14:22:00.836Z,25.83
2023-09-23T14:27:05.506Z,26.08
2023-09-23T14:32:11.065Z,26.19
2023-09-23T14:37:13.382Z,26.55
2023-09-23T14:42:16.824Z,26.59
2023-09-23T14:47:19.846Z,26.84
2023-09-23T14:52:23.508Z,27.55
2023-09-23T14:57:28.192Z,27.55
2023-09-23T15:02:31.275Z,28.51
2023-09-23T15:07:33.781Z,28.85
2023-09-23T15:12:37.485Z,28.92
2023-09-23T15:17:41.120Z,29.41
2023-09-23T15:22:45.274Z,29.57
2023-09-23T15:27:48.469Z,30.12
2023-09-23T15:32:51.714Z,30.68
2023-09-23T15:37:54.742Z,31.53
2023-09-23T15:42:58.437Z,32.01
2023-09-23T15:48:00.788Z,32.38
2023-09-23T15:53:05.076Z,32.46
2023-09-23T15:58:07.963Z,32.35
2023-09-23T16:03:10.601Z,32.63
2023-09-23T16:08:13.202Z,32.89
2023-09-23T16:13:16.164Z,33.27
2023-09-23T16:18:23.136Z,32.88
2023-09-23T16:23:26.905Z,32.87
2023-09-23T16:28:29.812Z,33.57
2023-09-23T16:33:33.079Z,33.61
2023-09-23T16:38:36.697Z,33.52
2023-09-23T16:43:39.208Z,33.84
2023-09-23T16:48:42.593Z,33.78
2023-09-23T16:53:45.607Z,34.21
2023-09-23T16:58:50.372Z,34.10
2023-09-23T17:03:53.312Z,34.19
2023-09-23T17:08:55.873Z,33.85
2023-09-23T17:13:58.302Z,34.28
2023-09-23T17:19:02.029Z,33.86
2023-09-23T17:24:05.100Z,33.77
2023-09-23T17:29:08.870Z,33.72
2023-09-23T17:34:12.120Z,33.42
2023-09-23T17:39:14.646Z,33.15
2023-09-23T17:44:17.314Z,33.19
2023-09-23T17:49:20.095Z,33.06
2023-09-23T17:54:22.544Z,33.48
2023-09-23T17:59:25.039Z,33.50
2023-09-23T18:04:27.386Z,33.86
2023-09-23T18:09:29.871Z,34.12
2023-09-23T18:14:32.359Z,34.30
2023-09-23T18:19:38.079Z,34.68
2023-09-23T18:24:40.724Z,34.31
2023-09-23T18:29:43.109Z,34.44
2023-09-23T18:34:46.513Z,34.78
2023-09-23T18:39:49.415Z,34.62
2023-09-23T18:44:52.712Z,34.61
2023-09-23T18:49:55.120Z,34.36
2023-09-23T18:54:57.714Z,34.37
2023-09-23T19:00:02.200Z,34.07
2023-09-23T19:05:07.150Z,34.21
2023-09-23T19:10:12.222Z,33.93
2023-09-23T19:15:17.311Z,34.07
2023-09-23T19:20:20.195Z,34.18
2023-09-23T19:25:22.616Z,34.31
2023-09-23T19:30:25.206Z,34.42
2023-09-23T19:35:28.368Z,34.22
2023-09-23T19:40:30.880Z,34.46
2023-09-23T19:45:34.473Z,34.73
2023-09-23T19:50:37.281Z,34.96
2023-09-23T19:55:40.522Z,34.96
2023-09-23T20:00:43.517Z,34.97
2023-09-23T20:05:48.924Z,35.36
2023-09-23T20:10:51.806Z,35.45
2023-09-23T20:15:54.786Z,35.62
2023-09-23T20:20:57.738Z,35.41
2023-09-23T20:26:01.772Z,35.75
2023-09-23T20:31:04.216Z,35.92
2023-09-23T20:36:07.377Z,35.99
2023-09-23T20:41:10.977Z,36.04
2023-09-23T20:46:14.084Z,36.23
2023-09-23T20:51:17.863Z,36.75
2023-09-23T20:56:21.130Z,37.28
2023-09-23T21:01:25.923Z,37.71
2023-09-23T21:06:28.906Z,37.87
2023-09-23T21:11:32.286Z,38.04
2023-09-23T21:16:35.690Z,38.55
2023-09-23T21:21:40.223Z,39.06
2023-09-23T21:26:42.676Z,39.37
2023-09-23T21:31:45.070Z,39.69
2023-09-23T21:36:48.021Z,40.83
2023-09-23T21:41:51.821Z,40.54
2023-09-23T21:46:54.684Z,40.87
2023-09-23T21:51:57.103Z,41.64
2023-09-23T21:56:59.596Z,42.01
2023-09-23T22:02:02.579Z,41.96
2023-09-23T22:07:06.379Z,41.49
2023-09-23T22:12:10.622Z,41.89
2023-09-23T22:17:15.397Z,42.12
2023-09-23T22:22:20.000Z,42.01
2023-09-23T22:27:27.051Z,42.59
2023-09-23T22:32:29.794Z,43.29
2023-09-23T22:37:32.325Z,43.63
2023-09-23T22:42:36.581Z,43.74
2023-09-23T22:47:42.757Z,43.76
2023-09-23T22:52:45.628Z,44.05
2023-09-23T22:57:49.056Z,44.69
2023-09-23T23:02:52.080Z,45.02
2023-09-23T23:07:54.622Z,45.14
2023-09-23T23:12:57.602Z,45.64
2023-09-23T23:18:00.799Z,45.99
2023-09-23T23:23:03.335Z,46.16
2023-09-23T23:28:08.860Z,45.83
2023-09-23T23:33:13.764Z,46.45
2023-09-23T23:38:17.390Z,46.25
2023-09-23T23:43:19.774Z,46.95
2023-09-23T23:48:22.792Z,47.48
2023-09-23T23:53:25.212Z,47.68
2023-09-23T23:58:28.886Z,47.87
